Time;durP1;ratioP1;P1;durP2;ratioP2;P2;SDS_P1;SDS_P2;PMS_P1;PMS_P2;Temp;Humidity;BMP_temperature;BMP_pressure;BME280_temperature;BME280_humidity;BME280_pressure;Samples;Min_cycle;Max_cycle;Signal;HPM_P1;HPM_P2
2021/03/01 00:02:06;;;;;;;15.18;8.20;;;6.90;80.60;;;;;;5096572;28;20031;-73
2021/03/01 00:04:31;;;;;;;13.00;8.80;;;6.90;80.90;;;;;;5114597;28;20027;-73
2021/03/01 00:06:57;;;;;;;13.20;8.80;;;7.00;80.90;;;;;;5114579;28;20023;-73
2021/03/01 00:09:23;;;;;;;14.85;9.02;;;7.00;80.80;;;;;;5114443;28;20063;-73
2021/03/01 00:11:48;;;;;;;13.77;8.40;;;6.90;80.60;;;;;;5096022;28;20434;-73
2021/03/01 00:14:14;;;;;;;14.30;8.48;;;7.00;80.80;;;;;;5114161;28;20099;-72
2021/03/01 00:16:39;;;;;;;15.05;9.18;;;7.00;80.90;;;;;;5095493;28;20023;-73
2021/03/01 00:19:05;;;;;;;15.57;9.93;;;7.00;80.70;;;;;;5094958;28;20027;-73
2021/03/01 00:21:31;;;;;;;16.10;9.82;;;7.00;80.70;;;;;;5095155;28;20031;-73
2021/03/01 00:23:57;;;;;;;15.80;9.43;;;7.00;81.00;;;;;;5095477;28;20059;-73
2021/03/01 00:26:22;;;;;;;16.98;10.05;;;7.00;81.00;;;;;;5095554;28;20477;-73
2021/03/01 00:28:48;;;;;;;18.52;11.18;;;7.00;81.00;;;;;;5113831;28;20077;-73
2021/03/01 00:31:13;;;;;;;18.25;10.60;;;7.00;80.90;;;;;;5113801;28;20024;-73
2021/03/01 00:33:39;;;;;;;19.90;11.23;;;7.00;80.90;;;;;;5113785;28;20023;-73
2021/03/01 00:36:05;;;;;;;19.90;11.93;;;6.90;80.90;;;;;;5095390;28;20024;-73
2021/03/01 00:38:30;;;;;;;22.67;11.63;;;6.90;80.90;;;;;;5095469;28;20027;-73
2021/03/01 00:40:56;;;;;;;20.75;11.77;;;6.90;80.90;;;;;;5095030;28;20474;-73
2021/03/01 00:43:22;;;;;;;17.23;10.48;;;6.90;81.00;;;;;;5095301;28;20067;-73
2021/03/01 00:45:47;;;;;;;18.23;10.30;;;6.90;81.10;;;;;;5113493;28;20024;-73
2021/03/01 00:48:13;;;;;;;19.50;11.13;;;6.80;81.00;;;;;;5095158;28;20035;-73
2021/03/01 00:50:39;;;;;;;23.58;11.93;;;6.90;81.00;;;;;;5094902;28;20031;-74
2021/03/01 00:53:05;;;;;;;20.17;11.20;;;6.90;81.00;;;;;;5113898;28;20076;-73
2021/03/01 00:55:30;;;;;;;21.15;12.32;;;6.90;81.00;;;;;;5113508;28;20479;-73
2021/03/01 00:57:56;;;;;;;22.25;12.25;;;6.80;81.00;;;;;;5094914;28;20023;-73
2021/03/01 01:00:22;;;;;;;20.55;12.05;;;6.80;81.00;;;;;;5095139;28;20032;-73
2021/03/01 01:02:48;;;;;;;22.88;11.90;;;6.80;81.10;;;;;;5113546;28;20198;-73
2021/03/01 01:05:13;;;;;;;19.70;10.85;;;6.80;81.10;;;;;;5113340;28;20106;-73
2021/03/01 01:07:39;;;;;;;20.98;10.85;;;6.80;81.20;;;;;;5094091;28;20051;-73
2021/03/01 01:10:06;;;;;;;19.17;10.85;;;6.80;81.50;;;;;;5113057;28;20055;-73
2021/03/01 01:12:38;;;;;;;19.25;10.88;;;6.90;81.40;;;;;;5112843;28;20095;-73
2021/03/01 01:15:08;;;;;;;17.38;10.40;;;6.90;81.50;;;;;;5095446;28;20084;-73
2021/03/01 01:17:34;;;;;;;18.52;10.55;;;6.90;81.80;;;;;;5113174;28;20031;-73
2021/03/01 01:20:00;;;;;;;19.50;11.10;;;6.90;81.70;;;;;;5094896;28;20056;-73
2021/03/01 01:22:26;;;;;;;21.70;12.45;;;7.00;81.70;;;;;;5094821;28;20470;-73
2021/03/01 01:24:51;;;;;;;19.50;11.15;;;7.00;81.60;;;;;;5113097;28;20027;-73
2021/03/01 01:27:17;;;;;;;21.40;12.60;;;6.90;81.40;;;;;;5094772;28;20474;-73
2021/03/01 01:29:43;;;;;;;22.60;12.77;;;6.90;81.40;;;;;;5113382;28;20067;-74
2021/03/01 01:32:09;;;;;;;20.73;12.30;;;7.00;81.40;;;;;;5094955;28;20026;-73
2021/03/01 01:34:34;;;;;;;22.98;12.50;;;7.00;81.40;;;;;;5112907;28;20094;-73
2021/03/01 01:37:00;;;;;;;24.55;13.70;;;7.00;81.30;;;;;;5113661;28;20068;-73
2021/03/01 01:39:25;;;;;;;21.92;11.88;;;7.00;81.30;;;;;;5112862;28;20437;-73
2021/03/01 01:41:51;;;;;;;17.80;10.60;;;7.00;81.30;;;;;;5113022;28;20020;-73
2021/03/01 01:44:17;;;;;;;21.48;11.98;;;7.00;81.40;;;;;;5094840;28;20028;-72
2021/03/01 01:46:42;;;;;;;22.05;12.38;;;7.00;81.60;;;;;;5094740;28;20026;-73
2021/03/01 01:49:08;;;;;;;24.52;13.55;;;7.00;81.50;;;;;;5094772;28;20016;-72
2021/03/01 01:51:35;;;;;;;24.35;12.68;;;6.90;81.40;;;;;;5112760;28;20027;-72
2021/03/01 01:54:01;;;;;;;23.27;13.18;;;6.90;81.40;;;;;;5094724;28;20032;-72
2021/03/01 01:56:27;;;;;;;23.60;13.20;;;6.90;81.40;;;;;;5112828;28;20494;-72
2021/03/01 01:58:53;;;;;;;23.45;11.82;;;6.90;81.40;;;;;;5094836;28;20111;-72
2021/03/01 02:01:18;;;;;;;22.98;13.48;;;6.90;81.30;;;;;;5094632;28;20069;-72
2021/03/01 02:03:49;;;;;;;20.58;12.18;;;6.90;81.30;;;;;;5094490;28;20016;-72
2021/03/01 02:06:26;;;;;;;23.80;13.57;;;7.00;81.30;;;;;;5094516;28;20597;-73
2021/03/01 02:09:20;;;;;;;23.90;13.02;;;7.00;81.20;;;;;;5112792;28;20032;-72
2021/03/01 02:12:04;;;;;;;22.52;13.68;;;7.00;81.10;;;;;;5094088;28;20126;-73
2021/03/01 02:14:34;;;;;;;;;;;7.10;81.10;;;;;;5113180;28;20092;-72
2021/03/01 02:17:00;;;;;;;27.60;14.05;;;7.10;81.00;;;;;;5112591;28;19926;-72
2021/03/01 02:19:27;;;;;;;26.00;14.45;;;7.00;80.90;;;;;;5095843;28;20019;-72
2021/03/01 02:21:52;;;;;;;22.85;12.85;;;7.00;81.00;;;;;;5116438;28;20471;-72
2021/03/01 02:24:25;;;;;;;19.92;11.73;;;6.90;81.10;;;;;;5116338;28;20072;-72
2021/03/01 02:26:53;;;;;;;19.60;11.30;;;6.90;81.30;;;;;;5097948;28;20027;-72
2021/03/01 02:29:21;;;;;;;20.92;12.13;;;6.90;81.50;;;;;;5097725;28;20019;-72
2021/03/01 02:31:48;;;;;;;19.17;12.02;;;6.90;81.50;;;;;;5097732;28;20027;-72
2021/03/01 02:34:17;;;;;;;24.70;14.15;;;7.00;81.30;;;;;;5116198;28;20118;-72
2021/03/01 02:36:45;;;;;;;21.85;12.27;;;7.00;81.20;;;;;;5116080;28;20532;-72
2021/03/01 02:39:16;;;;;;;22.38;13.30;;;7.00;81.10;;;;;;5097474;28;20465;-72
2021/03/01 02:41:43;;;;;;;23.85;13.05;;;7.10;81.10;;;;;;5115962;28;20106;-71
2021/03/01 02:44:09;;;;;;;22.35;13.68;;;7.10;81.00;;;;;;5115993;28;20030;-71
2021/03/01 02:46:36;;;;;;;23.00;12.88;;;7.10;81.00;;;;;;5115863;28;20095;-71
2021/03/01 02:49:06;;;;;;;20.75;12.00;;;7.10;80.80;;;;;;5097596;28;20050;-71
2021/03/01 02:51:34;;;;;;;23.48;12.00;;;7.00;80.90;;;;;;5097327;28;20030;-72
2021/03/01 02:54:02;;;;;;;20.75;12.27;;;7.00;80.90;;;;;;5097473;28;20396;-73
2021/03/01 02:56:28;;;;;;;22.63;12.63;;;7.00;81.00;;;;;;5115856;28;20459;-72
2021/03/01 02:58:56;;;;;;;19.70;12.30;;;7.00;81.00;;;;;;5115955;28;20024;-72
2021/03/01 03:01:22;;;;;;;24.27;12.90;;;7.00;80.90;;;;;;5115561;28;20111;-72
2021/03/01 03:03:51;;;;;;;20.13;11.93;;;7.00;81.50;;;;;;5097131;28;20373;-72
2021/03/01 03:06:18;;;;;;;21.05;12.40;;;7.00;80.90;;;;;;5097343;28;20020;-71
2021/03/01 03:08:44;;;;;;;22.85;12.75;;;6.90;80.90;;;;;;5097139;28;20023;-72
2021/03/01 03:11:11;;;;;;;20.35;11.32;;;6.90;81.10;;;;;;5115265;28;20027;-72
2021/03/01 03:13:39;;;;;;;17.17;10.32;;;6.90;81.00;;;;;;5115318;28;20020;-72
2021/03/01 03:16:06;;;;;;;18.50;10.85;;;7.00;81.00;;;;;;5115317;28;20016;-71
2021/03/01 03:18:33;;;;;;;19.40;11.35;;;6.90;80.80;;;;;;5096890;28;20024;-72
2021/03/01 03:20:59;;;;;;;16.77;10.93;;;6.90;80.80;;;;;;5115224;28;20024;-72
2021/03/01 03:23:25;;;;;;;21.30;11.95;;;6.90;80.90;;;;;;5115380;28;20081;-73
2021/03/01 03:25:52;;;;;;;18.83;10.85;;;6.90;80.90;;;;;;5096730;28;20042;-72
2021/03/01 03:28:17;;;;;;;15.65;10.32;;;6.80;81.00;;;;;;5096762;28;20097;-72
2021/03/01 03:30:43;;;;;;;19.70;11.45;;;6.80;81.50;;;;;;5114488;28;20028;-72
2021/03/01 03:33:09;;;;;;;18.25;11.13;;;6.80;81.40;;;;;;5096725;28;20031;-73
2021/03/01 03:35:35;;;;;;;19.63;12.23;;;6.80;81.20;;;;;;5096400;28;20022;-72
2021/03/01 03:38:08;;;;;;;20.38;11.85;;;6.80;81.20;;;;;;5114871;28;20515;-72
2021/03/01 03:40:35;;;;;;;16.95;10.63;;;6.80;81.10;;;;;;5096254;28;20050;-72
2021/03/01 03:43:02;;;;;;;15.70;10.35;;;6.80;81.20;;;;;;5114922;28;20378;-72
2021/03/01 03:45:29;;;;;;;17.48;11.13;;;6.70;81.30;;;;;;5096984;28;20019;-73
2021/03/01 03:47:58;;;;;;;17.42;11.00;;;6.70;81.20;;;;;;5096875;28;20046;-72
2021/03/01 03:50:25;;;;;;;16.60;10.07;;;6.60;81.20;;;;;;5096443;28;20024;-72
2021/03/01 03:52:58;;;;;;;16.20;9.82;;;6.60;81.40;;;;;;5096676;28;20483;-72
2021/03/01 03:55:26;;;;;;;15.23;9.53;;;6.60;81.60;;;;;;5114902;28;20539;-72
2021/03/01 03:58:02;;;;;;;16.48;10.82;;;6.60;81.50;;;;;;5114819;28;20261;-72
2021/03/01 04:00:29;;;;;;;15.15;9.80;;;6.60;81.50;;;;;;5093922;28;20065;-72
2021/03/01 04:02:58;;;;;;;14.85;10.05;;;6.60;81.60;;;;;;5096480;28;20015;-73
2021/03/01 04:05:25;;;;;;;12.73;8.23;;;6.60;81.50;;;;;;5114725;28;20035;-72
2021/03/01 04:07:52;;;;;;;13.65;9.13;;;6.60;81.50;;;;;;5114753;28;20400;-73
2021/03/01 04:10:18;;;;;;;15.38;10.10;;;6.60;81.50;;;;;;5114263;28;20031;-73
2021/03/01 04:12:48;;;;;;;17.90;10.75;;;6.60;81.40;;;;;;5114550;28;20066;-72
2021/03/01 04:15:16;;;;;;;17.45;10.27;;;6.60;81.30;;;;;;5114291;28;20424;-72
2021/03/01 04:17:43;;;;;;;15.95;10.27;;;6.50;81.20;;;;;;5095834;28;20020;-72
2021/03/01 04:20:15;;;;;;;12.52;8.25;;;6.50;81.30;;;;;;5095800;28;20023;-72
2021/03/01 04:22:42;;;;;;;15.88;10.05;;;6.50;81.60;;;;;;5096124;28;20050;-72
2021/03/01 04:25:08;;;;;;;15.07;8.90;;;6.50;81.70;;;;;;5096102;28;20024;-72
2021/03/01 04:27:37;;;;;;;15.50;9.40;;;6.50;82.40;;;;;;5114295;28;20058;-73
2021/03/01 04:30:07;;;;;;;15.52;9.73;;;6.50;82.90;;;;;;5114645;28;20024;-72
2021/03/01 04:32:36;;;;;;;16.15;10.15;;;6.50;82.70;;;;;;5114242;28;20020;-73
2021/03/01 04:35:05;;;;;;;12.98;9.32;;;6.50;82.40;;;;;;5114071;28;20102;-72
2021/03/01 04:37:31;;;;;;;15.98;10.27;;;6.50;82.20;;;;;;5095803;28;20023;-73
2021/03/01 04:39:56;;;;;;;16.90;10.95;;;6.60;82.10;;;;;;5113566;28;20439;-72
2021/03/01 04:42:23;;;;;;;14.85;9.88;;;6.60;81.90;;;;;;5112932;28;20112;-72
2021/03/01 04:44:49;;;;;;;15.15;9.40;;;6.60;81.80;;;;;;5095072;28;20388;-72
2021/03/01 04:47:16;;;;;;;14.35;9.45;;;6.60;81.80;;;;;;5113939;28;20099;-72
2021/03/01 04:49:44;;;;;;;16.77;9.88;;;6.60;81.90;;;;;;5113320;28;20030;-72
2021/03/01 04:52:13;;;;;;;15.15;9.27;;;6.60;81.90;;;;;;5113636;28;20073;-72
2021/03/01 04:54:40;;;;;;;16.02;9.85;;;6.60;81.90;;;;;;5112984;28;20141;-72
2021/03/01 04:57:08;;;;;;;16.58;10.48;;;6.60;81.80;;;;;;5095304;28;20024;-72
2021/03/01 04:59:34;;;;;;;19.63;12.27;;;6.60;81.60;;;;;;5113488;28;20106;-72
2021/03/01 05:02:00;;;;;;;20.85;12.63;;;6.50;81.50;;;;;;5113244;28;20088;-73
2021/03/01 05:04:26;;;;;;;17.92;11.18;;;6.40;81.40;;;;;;5113740;28;20024;-73
2021/03/01 05:06:56;;;;;;;16.77;10.57;;;6.40;81.60;;;;;;5094926;28;20023;-72
2021/03/01 05:09:22;;;;;;;18.20;11.10;;;6.30;81.80;;;;;;5113280;28;20024;-72
2021/03/01 05:11:48;;;;;;;17.45;10.88;;;6.30;81.80;;;;;;5113270;28;20110;-72
2021/03/01 05:14:13;;;;;;;17.05;10.63;;;6.40;81.70;;;;;;5113711;28;20016;-72
2021/03/01 05:16:39;;;;;;;18.60;11.38;;;6.30;81.80;;;;;;5094833;28;20039;-72
2021/03/01 05:19:05;;;;;;;16.80;10.38;;;6.40;81.80;;;;;;5095071;28;20034;-72
2021/03/01 05:21:31;;;;;;;16.20;10.13;;;6.40;82.10;;;;;;5094936;28;20023;-72
2021/03/01 05:23:56;;;;;;;17.90;11.40;;;6.40;82.10;;;;;;5094734;28;20031;-72
2021/03/01 05:26:22;;;;;;;15.75;9.50;;;6.40;82.10;;;;;;5094773;28;20027;-72
2021/03/01 05:28:48;;;;;;;14.38;8.95;;;6.30;82.60;;;;;;5094949;28;20073;-71
2021/03/01 05:31:14;;;;;;;12.25;7.82;;;6.30;82.80;;;;;;5113443;28;20024;-72
2021/03/01 05:37:02;;;;;;;16.88;10.32;;;6.30;83.80;;;;;;5113159;28;20084;-73
2021/03/01 05:39:27;;;;;;;15.25;9.63;;;6.20;83.30;;;;;;5112878;28;20123;-72
2021/03/01 05:41:53;;;;;;;15.35;9.82;;;6.20;83.10;;;;;;5094682;28;20040;-72
2021/03/01 05:44:20;;;;;;;17.08;10.18;;;6.20;83.70;;;;;;5095005;28;20414;-72
2021/03/01 05:46:48;;;;;;;16.55;9.55;;;6.10;83.60;;;;;;5112853;28;20161;-72
2021/03/01 05:49:15;;;;;;;17.27;10.38;;;6.00;84.10;;;;;;5112912;28;20024;-72
2021/03/01 05:51:48;;;;;;;19.70;10.98;;;6.00;84.40;;;;;;5094471;28;20039;-72
2021/03/01 05:54:18;;;;;;;18.48;10.30;;;6.00;84.00;;;;;;5114097;28;20027;-73
2021/03/01 05:56:45;;;;;;;20.30;12.40;;;6.00;83.90;;;;;;5117461;28;20012;-72
2021/03/01 05:59:12;;;;;;;14.95;8.65;;;6.00;83.60;;;;;;5116895;28;20031;-72
2021/03/01 06:01:38;;;;;;;15.60;8.43;;;5.90;84.00;;;;;;5098666;28;20364;-72
2021/03/01 06:04:05;;;;;;;19.42;11.80;;;5.90;85.00;;;;;;5116914;28;20084;-72
2021/03/01 06:06:31;;;;;;;21.60;12.48;;;5.90;84.60;;;;;;5098440;28;20046;-71
2021/03/01 06:08:57;;;;;;;18.00;11.65;;;5.80;84.20;;;;;;5116602;28;20079;-72
2021/03/01 06:11:22;;;;;;;19.65;12.32;;;5.80;84.30;;;;;;5116826;28;20106;-71
2021/03/01 06:13:48;;;;;;;20.52;11.40;;;5.70;84.80;;;;;;5116734;28;20028;-71
2021/03/01 06:16:14;;;;;;;23.10;12.63;;;5.70;84.60;;;;;;5098061;28;20023;-71
2021/03/01 06:18:46;;;;;;;19.17;11.50;;;5.70;84.40;;;;;;5098160;28;20469;-71
2021/03/01 06:21:17;;;;;;;23.02;12.80;;;5.70;84.40;;;;;;5116527;28;20028;-72
2021/03/01 06:23:45;;;;;;;21.00;11.90;;;5.60;84.10;;;;;;5116279;28;20027;-71
2021/03/01 06:26:37;;;;;;;20.42;11.82;;;5.60;84.20;;;;;;5097998;28;20118;-71
2021/03/01 06:29:03;;;;;;;18.45;11.20;;;5.60;84.20;;;;;;5097986;28;20026;-72
2021/03/01 06:31:33;;;;;;;18.15;10.98;;;5.60;84.60;;;;;;5097715;28;20118;-72
2021/03/01 06:34:21;;;;;;;20.33;11.30;;;5.50;84.40;;;;;;5097781;28;20019;-72
2021/03/01 06:37:08;;;;;;;17.00;9.77;;;5.60;84.20;;;;;;5118079;28;20051;-72
2021/03/01 06:39:41;;;;;;;19.50;11.43;;;5.60;84.00;;;;;;5097651;28;20487;-72
2021/03/01 06:42:19;;;;;;;20.17;11.77;;;5.60;84.00;;;;;;5097648;28;20028;-71
2021/03/01 06:44:57;;;;;;;18.67;10.70;;;5.60;84.10;;;;;;5116386;28;20027;-72
2021/03/01 06:47:45;;;;;;;19.60;10.48;;;5.50;84.20;;;;;;5116138;28;20069;-72
2021/03/01 06:50:30;;;;;;;20.38;11.05;;;5.50;84.40;;;;;;5115921;28;20053;-76
2021/03/01 06:52:57;;;;;;;26.45;14.38;;;5.50;84.60;;;;;;5116022;28;20023;-72
2021/03/01 06:55:22;;;;;;;21.98;11.55;;;5.50;84.30;;;;;;5097547;28;20103;-73
2021/03/01 06:57:48;;;;;;;24.58;13.48;;;5.50;84.10;;;;;;5116536;28;20094;-73
2021/03/01 07:00:21;;;;;;;24.65;14.82;;;5.50;83.90;;;;;;5097567;28;20082;-73
2021/03/01 07:02:46;;;;;;;26.93;14.83;;;5.50;83.70;;;;;;5115845;28;20575;-72
2021/03/01 07:05:12;;;;;;;21.58;12.70;;;5.60;83.70;;;;;;5096665;28;20070;-73
2021/03/01 07:07:38;;;;;;;22.83;12.32;;;5.60;83.30;;;;;;5096893;28;20091;-72
2021/03/01 07:10:06;;;;;;;20.38;12.05;;;5.60;83.20;;;;;;5097215;28;20030;-73
2021/03/01 07:12:44;;;;;;;21.58;12.07;;;5.60;83.20;;;;;;5097181;28;20375;-74
2021/03/01 07:15:11;;;;;;;22.17;11.85;;;5.60;83.20;;;;;;5096954;28;20099;-73
2021/03/01 07:17:39;;;;;;;20.42;11.80;;;5.60;83.10;;;;;;5096783;28;20114;-72
2021/03/01 07:20:07;;;;;;;22.17;11.70;;;5.60;83.00;;;;;;5115260;28;20030;-73
2021/03/01 07:22:34;;;;;;;19.42;11.68;;;5.60;83.00;;;;;;5097482;28;20027;-73
2021/03/01 07:25:01;;;;;;;20.30;11.57;;;5.60;82.90;;;;;;5115384;28;20058;-73
2021/03/01 07:27:27;;;;;;;21.08;12.60;;;5.60;82.70;;;;;;5096731;28;20057;-73
2021/03/01 07:29:57;;;;;;;21.10;10.43;;;5.60;82.60;;;;;;5115328;28;20103;-74
2021/03/01 07:32:26;;;;;;;17.48;10.65;;;5.60;82.70;;;;;;5096662;28;20126;-73
2021/03/01 07:34:53;;;;;;;20.30;11.73;;;5.50;82.50;;;;;;5096738;28;20073;-73
2021/03/01 07:37:19;;;;;;;19.10;11.07;;;5.50;82.50;;;;;;5096297;28;20020;-74
2021/03/01 07:39:45;;;;;;;19.65;11.05;;;5.50;82.40;;;;;;5114543;28;20043;-72
2021/03/01 07:42:14;;;;;;;24.60;12.02;;;5.50;82.40;;;;;;5096090;28;20072;-72
2021/03/01 07:44:41;;;;;;;20.45;11.70;;;5.50;82.50;;;;;;5096145;28;20355;-74
2021/03/01 07:50:35;;;;;;;16.70;9.30;;;5.50;82.30;;;;;;5114623;28;20498;-74
2021/03/01 07:53:01;;;;;;;16.35;9.70;;;5.40;82.30;;;;;;5096170;28;20063;-74
2021/03/01 07:55:27;;;;;;;21.38;11.23;;;5.40;82.30;;;;;;5114555;28;20122;-74
2021/03/01 07:58:00;;;;;;;15.85;9.60;;;5.40;82.40;;;;;;5114188;28;20023;-74
2021/03/01 08:00:29;;;;;;;17.08;10.02;;;5.40;82.50;;;;;;5114689;28;20099;-73
2021/03/01 08:02:56;;;;;;;19.00;11.20;;;5.40;82.50;;;;;;5114358;28;20027;-73
2021/03/01 08:05:29;;;;;;;17.15;10.52;;;5.50;82.50;;;;;;5114287;28;20153;-74
2021/03/01 08:07:56;;;;;;;18.30;10.27;;;5.50;82.30;;;;;;5096099;28;20024;-74
2021/03/01 08:10:27;;;;;;;17.85;9.82;;;5.50;82.80;;;;;;5096424;28;20019;-78
2021/03/01 08:13:03;;;;;;;16.67;9.02;;;5.50;83.20;;;;;;5096538;28;20039;-74
2021/03/01 08:15:34;;;;;;;17.35;9.65;;;5.50;83.20;;;;;;5115055;28;20026;-75
2021/03/01 08:18:00;;;;;;;17.60;9.80;;;5.50;83.50;;;;;;5114308;28;20162;-74
2021/03/01 08:20:34;;;;;;;20.00;11.40;;;5.50;83.80;;;;;;5096099;28;20023;-74
2021/03/01 08:23:06;;;;;;;20.05;10.85;;;5.50;83.50;;;;;;5114116;28;20494;-74
2021/03/01 08:25:54;;;;;;;20.00;9.75;;;5.50;83.20;;;;;;5095898;28;20559;-74
2021/03/01 08:28:22;;;;;;;18.05;10.30;;;5.50;83.10;;;;;;5114004;28;20023;-74
2021/03/01 08:30:49;;;;;;;17.00;9.68;;;5.50;83.10;;;;;;5113820;28;20035;-74
2021/03/01 08:33:15;;;;;;;17.27;9.60;;;5.50;83.00;;;;;;5113841;28;20478;-75
2021/03/01 08:35:46;;;;;;;15.75;8.35;;;5.50;82.90;;;;;;5113703;28;20023;-75
2021/03/01 08:38:13;;;;;;;16.80;9.63;;;5.60;83.00;;;;;;5113879;28;20031;-75
2021/03/01 08:40:53;;;;;;;15.30;9.38;;;5.60;82.90;;;;;;5113889;28;20416;-75
2021/03/01 08:43:34;;;;;;;19.83;9.57;;;5.70;82.90;;;;;;5113776;28;20036;-75
2021/03/01 08:45:59;;;;;;;14.95;8.60;;;5.70;82.70;;;;;;5095580;28;20550;-75
2021/03/01 08:48:26;;;;;;;15.73;8.23;;;5.70;82.70;;;;;;5095152;28;20059;-75
2021/03/01 08:50:53;;;;;;;16.75;8.85;;;5.80;82.90;;;;;;5114001;28;20039;-76
2021/03/01 08:53:29;;;;;;;13.38;8.23;;;5.80;82.90;;;;;;5113379;28;20104;-74
2021/03/01 08:55:59;;;;;;;14.32;8.57;;;5.90;82.60;;;;;;5095280;28;20027;-74
2021/03/01 08:58:30;;;;;;;15.40;8.57;;;6.00;82.50;;;;;;5095052;28;20107;-74
2021/03/01 09:01:04;;;;;;;14.55;8.57;;;6.00;82.30;;;;;;5113025;28;20050;-74
2021/03/01 09:03:32;;;;;;;15.30;8.82;;;6.10;82.20;;;;;;5112932;28;20060;-74
2021/03/01 09:06:08;;;;;;;17.85;9.60;;;6.10;81.90;;;;;;5113452;28;20024;-75
2021/03/01 09:08:39;;;;;;;15.15;9.35;;;6.10;82.50;;;;;;5094682;28;20034;-74
2021/03/01 09:11:20;;;;;;;17.23;9.15;;;6.10;81.90;;;;;;5113416;28;20035;-74
2021/03/01 09:13:48;;;;;;;16.17;9.40;;;6.10;81.80;;;;;;5113044;28;20028;-74
2021/03/01 09:16:17;;;;;;;17.88;10.57;;;6.20;81.70;;;;;;5113083;28;20042;-73
2021/03/01 09:18:46;;;;;;;18.92;9.80;;;6.20;81.50;;;;;;5094381;28;20019;-73
2021/03/01 09:21:17;;;;;;;16.52;10.05;;;6.20;81.60;;;;;;5112875;28;20482;-73
2021/03/01 09:23:50;;;;;;;16.92;9.35;;;6.20;81.60;;;;;;5112652;28;20463;-72
2021/03/01 09:26:20;;;;;;;;;;;6.20;81.60;;;;;;5094914;28;20030;-72
2021/03/01 09:28:47;;;;;;;14.60;7.93;;;6.20;81.50;;;;;;5114577;28;20431;-74
2021/03/01 09:31:14;;;;;;;14.55;8.77;;;6.20;81.40;;;;;;5101425;28;20032;-75
2021/03/01 09:33:41;;;;;;;16.25;9.27;;;6.20;81.10;;;;;;5119940;28;20030;-74
2021/03/01 09:36:08;;;;;;;18.02;9.73;;;6.20;81.00;;;;;;5101513;28;20485;-72
2021/03/01 09:38:34;;;;;;;17.67;9.27;;;6.20;81.20;;;;;;5119719;28;20038;-72
2021/03/01 09:41:06;;;;;;;14.60;8.68;;;6.20;81.30;;;;;;5119468;28;20048;-72
2021/03/01 09:43:33;;;;;;;12.82;8.20;;;6.20;81.40;;;;;;5119505;28;20027;-72
2021/03/01 09:46:01;;;;;;;17.17;8.00;;;6.30;81.30;;;;;;5101152;28;20108;-72
2021/03/01 09:48:30;;;;;;;13.98;7.88;;;6.30;81.10;;;;;;5101589;28;20420;-72
2021/03/01 09:50:57;;;;;;;13.55;7.55;;;6.30;81.70;;;;;;5100977;28;20032;-71
2021/03/01 09:53:26;;;;;;;15.38;8.27;;;6.40;81.20;;;;;;5119308;28;20438;-72
2021/03/01 09:55:53;;;;;;;13.82;7.63;;;6.50;81.10;;;;;;5101003;28;20051;-72
2021/03/01 09:58:31;;;;;;;13.50;7.55;;;6.60;81.00;;;;;;5119397;28;20420;-72
2021/03/01 10:01:11;;;;;;;13.20;7.63;;;6.60;80.80;;;;;;5119550;28;20024;-72
2021/03/01 10:03:48;;;;;;;14.57;7.90;;;6.70;80.70;;;;;;5119250;28;20058;-72
2021/03/01 10:06:29;;;;;;;13.70;7.47;;;6.70;81.00;;;;;;5101193;28;20019;-72
2021/03/01 10:09:01;;;;;;;15.98;8.40;;;6.70;81.00;;;;;;5101128;28;20180;-72
2021/03/01 10:11:27;;;;;;;12.93;7.88;;;6.80;80.80;;;;;;5119398;28;20028;-72
2021/03/01 10:14:08;;;;;;;14.40;7.85;;;6.70;80.90;;;;;;5100882;28;20595;-72
2021/03/01 10:16:37;;;;;;;17.63;7.63;;;6.70;80.80;;;;;;5119492;28;20038;-72
2021/03/01 10:19:13;;;;;;;13.45;7.63;;;6.70;80.80;;;;;;5101090;28;20023;-72
2021/03/01 10:21:40;;;;;;;14.70;7.55;;;6.80;80.60;;;;;;5100963;28;20027;-72
2021/03/01 10:24:08;;;;;;;13.95;8.30;;;6.90;80.40;;;;;;5119349;28;20031;-72
2021/03/01 10:26:52;;;;;;;16.33;8.15;;;7.00;80.20;;;;;;5119094;28;20088;-74
2021/03/01 10:29:29;;;;;;;12.43;7.32;;;7.00;80.10;;;;;;5100802;28;20425;-72
2021/03/01 10:31:54;;;;;;;15.32;7.45;;;7.00;80.00;;;;;;5100829;28;20132;-72
2021/03/01 10:34:28;;;;;;;12.48;7.70;;;7.00;79.90;;;;;;5100408;28;20479;-71
2021/03/01 10:37:02;;;;;;;;;;;7.00;79.90;;;;;;5119762;28;20024;-72
2021/03/01 10:39:39;;;;;;;11.95;7.05;;;7.10;79.90;;;;;;5100286;28;19908;-72
2021/03/01 10:42:37;;;;;;;13.27;7.55;;;7.20;79.90;;;;;;5115764;28;20036;-72
2021/03/01 10:45:04;;;;;;;14.55;7.78;;;7.30;79.60;;;;;;5096073;28;20092;-72
2021/03/01 10:47:34;;;;;;;13.00;7.70;;;7.30;79.50;;;;;;5097031;28;20034;-72
2021/03/01 10:50:20;;;;;;;13.35;7.65;;;7.40;79.30;;;;;;5115515;28;20076;-73
2021/03/01 10:52:46;;;;;;;13.57;7.68;;;7.40;79.10;;;;;;5097283;28;20055;-72
2021/03/01 10:55:12;;;;;;;13.13;7.55;;;7.40;79.10;;;;;;5097234;28;20072;-72
2021/03/01 10:57:37;;;;;;;13.23;7.90;;;7.50;79.00;;;;;;5097227;28;20027;-72
2021/03/01 11:00:04;;;;;;;15.45;8.35;;;7.50;79.00;;;;;;5097120;28;20495;-72
2021/03/01 11:02:30;;;;;;;13.68;7.70;;;7.50;78.80;;;;;;5115286;28;20055;-72
2021/03/01 11:04:56;;;;;;;13.43;8.02;;;7.60;78.90;;;;;;5115367;28;20062;-72
2021/03/01 11:07:22;;;;;;;15.50;8.15;;;7.60;78.50;;;;;;5115384;28;20019;-73
2021/03/01 11:09:47;;;;;;;14.77;8.70;;;7.60;78.50;;;;;;5096926;28;20471;-73
2021/03/01 11:12:14;;;;;;;15.68;8.52;;;7.60;78.50;;;;;;5096931;28;20020;-73
2021/03/01 11:14:40;;;;;;;13.45;8.30;;;7.60;78.40;;;;;;5096773;28;20028;-73
2021/03/01 11:17:05;;;;;;;11.13;6.70;;;7.50;78.40;;;;;;5115321;28;20467;-73
2021/03/01 11:19:31;;;;;;;11.27;6.80;;;7.60;78.60;;;;;;5096691;28;20082;-72
2021/03/01 11:21:57;;;;;;;12.50;6.90;;;7.60;78.50;;;;;;5115005;28;20133;-73
2021/03/01 11:24:23;;;;;;;12.48;7.00;;;7.70;78.50;;;;;;5096644;28;20027;-73
2021/03/01 11:26:52;;;;;;;14.35;7.22;;;7.70;78.40;;;;;;5115439;28;20081;-73
2021/03/01 11:29:19;;;;;;;12.80;7.68;;;7.80;78.40;;;;;;5114879;28;20108;-73
2021/03/01 11:31:45;;;;;;;13.70;7.63;;;7.90;78.20;;;;;;5114756;28;20027;-73
2021/03/01 11:34:11;;;;;;;13.70;7.40;;;7.90;77.80;;;;;;5096479;28;20028;-73
2021/03/01 11:36:37;;;;;;;11.73;6.70;;;8.00;77.80;;;;;;5096518;28;20032;-73
2021/03/01 11:39:05;;;;;;;14.75;7.93;;;8.00;77.60;;;;;;5114753;28;20020;-72
2021/03/01 11:41:31;;;;;;;10.88;6.72;;;8.10;77.50;;;;;;5096636;28;20039;-73
2021/03/01 11:43:56;;;;;;;10.52;6.32;;;8.20;77.40;;;;;;5114929;28;20127;-72
2021/03/01 11:46:22;;;;;;;12.73;6.78;;;8.30;77.20;;;;;;5114910;28;20031;-72
2021/03/01 11:48:48;;;;;;;10.23;6.57;;;8.50;77.00;;;;;;5114536;28;20035;-73
2021/03/01 11:51:15;;;;;;;11.93;7.57;;;8.60;77.30;;;;;;5114371;28;20036;-72
2021/03/01 11:53:41;;;;;;;13.00;7.03;;;8.60;76.50;;;;;;5096104;28;20027;-73
2021/03/01 11:56:07;;;;;;;12.00;7.60;;;8.70;76.30;;;;;;5114723;28;20055;-73
2021/03/01 11:58:37;;;;;;;10.27;6.63;;;8.70;76.10;;;;;;5114817;28;20088;-73
2021/03/01 12:01:04;;;;;;;11.23;7.25;;;8.90;76.00;;;;;;5114446;28;20135;-73
2021/03/01 12:03:30;;;;;;;12.50;7.38;;;9.00;75.90;;;;;;5095895;28;20039;-73
2021/03/01 12:05:55;;;;;;;11.35;7.03;;;9.00;75.70;;;;;;5114140;28;20047;-72
2021/03/01 12:08:21;;;;;;;13.13;7.63;;;9.00;75.20;;;;;;5095786;28;20020;-73
2021/03/01 12:10:46;;;;;;;10.82;6.35;;;9.00;75.40;;;;;;5113881;28;20028;-72
2021/03/01 12:13:12;;;;;;;14.65;8.13;;;9.00;75.60;;;;;;5114104;28;20359;-73
2021/03/01 12:15:38;;;;;;;11.60;7.00;;;8.90;75.50;;;;;;5095843;28;20471;-73
2021/03/01 12:18:03;;;;;;;11.40;6.60;;;8.90;75.70;;;;;;5114059;28;20100;-73
2021/03/01 12:20:29;;;;;;;12.13;7.00;;;8.90;75.80;;;;;;5095857;28;20023;-73
2021/03/01 12:22:55;;;;;;;10.70;6.80;;;9.00;75.80;;;;;;5095956;28;20341;-73
2021/03/01 12:25:21;;;;;;;11.13;7.18;;;9.00;75.40;;;;;;5097073;28;20026;-72
2021/03/01 12:27:47;;;;;;;12.30;6.65;;;9.10;75.20;;;;;;5096481;28;20479;-73
2021/03/01 12:30:13;;;;;;;11.60;6.60;;;9.10;75.20;;;;;;5100764;28;20032;-73
2021/03/01 12:32:38;;;;;;;11.75;7.10;;;9.20;75.10;;;;;;5095954;28;20012;-73
2021/03/01 12:35:05;;;;;;;11.07;7.18;;;9.20;75.00;;;;;;5113716;28;20023;-72
2021/03/01 12:37:31;;;;;;;12.73;7.28;;;9.20;74.90;;;;;;5095050;28;20058;-73
2021/03/01 12:39:57;;;;;;;14.77;7.15;;;9.30;74.90;;;;;;5113756;28;20144;-73
2021/03/01 12:42:23;;;;;;;11.05;7.38;;;9.40;74.80;;;;;;5114613;28;20028;-73
2021/03/01 12:44:49;;;;;;;11.63;7.13;;;9.50;74.70;;;;;;5095530;28;20018;-73
2021/03/01 12:47:14;;;;;;;13.35;7.53;;;9.60;74.50;;;;;;5095114;28;20115;-73
2021/03/01 12:49:40;;;;;;;11.07;6.38;;;9.70;74.20;;;;;;5113368;28;20467;-73
2021/03/01 12:52:06;;;;;;;12.07;7.10;;;9.80;74.10;;;;;;5113210;28;20047;-73
2021/03/01 12:54:31;;;;;;;13.52;7.30;;;9.90;73.80;;;;;;5113471;28;20020;-73
2021/03/01 12:56:58;;;;;;;10.32;7.28;;;10.00;73.40;;;;;;5094894;28;20060;-73